createdAt,value
2017-07-02T00:00:09.803Z,85.28
2017-07-02T00:00:35.950Z,85.28
2017-07-02T00:01:01.997Z,85.18
2017-07-02T00:01:28.093Z,84.99
2017-07-02T00:01:54.200Z,84.89
2017-07-02T00:02:20.289Z,85.08
2017-07-02T00:02:46.384Z,84.6
2017-07-02T00:03:12.491Z,84.7
2017-07-02T00:03:38.583Z,85.57
2017-07-02T00:04:04.675Z,85.18
2017-07-02T00:04:30.781Z,85.57
2017-07-02T00:04:56.878Z,85.18
2017-07-02T00:05:22.980Z,85.18
2017-07-02T00:05:49.120Z,85.18
2017-07-02T00:06:15.218Z,85.28
2017-07-02T00:06:41.378Z,85.57
2017-07-02T00:07:07.520Z,85.57
2017-07-02T00:07:33.607Z,85.75
2017-07-02T00:07:59.719Z,85.75
2017-07-02T00:08:25.843Z,85.57
2017-07-02T00:08:51.958Z,85.85
2017-07-02T00:09:18.092Z,85.57
2017-07-02T00:09:44.220Z,85.75
2017-07-02T00:10:10.360Z,85.66
2017-07-02T00:10:36.486Z,85.57
2017-07-02T00:11:02.593Z,85.85
2017-07-02T00:11:28.679Z,85.85
2017-07-02T00:11:54.779Z,85.85
2017-07-02T00:12:20.911Z,85.75
2017-07-02T00:12:47.055Z,85.08
2017-07-02T00:13:13.200Z,85.75
2017-07-02T00:13:39.364Z,85.75
2017-07-02T00:14:05.486Z,85.57
2017-07-02T00:14:31.600Z,85.57
2017-07-02T00:14:57.709Z,85.66
2017-07-02T00:15:23.831Z,85.75
2017-07-02T00:15:49.945Z,85.28
2017-07-02T00:16:16.052Z,85.18
2017-07-02T00:16:42.175Z,85.37
2017-07-02T00:17:08.280Z,85.37
2017-07-02T00:17:34.375Z,85.75
2017-07-02T00:18:00.462Z,85.75
2017-07-02T00:18:26.567Z,85.66
2017-07-02T00:18:52.666Z,85.75
2017-07-02T00:19:18.779Z,85.08
2017-07-02T00:19:44.913Z,85.37
2017-07-02T00:20:11.037Z,85.57
2017-07-02T00:20:37.127Z,85.37
2017-07-02T00:21:03.254Z,85.57
2017-07-02T00:21:29.385Z,85.18
2017-07-02T00:21:55.478Z,85.28
2017-07-02T00:22:21.603Z,85.28
2017-07-02T00:22:47.716Z,85.57
2017-07-02T00:23:13.822Z,85.37
2017-07-02T00:23:39.980Z,85.75
2017-07-02T00:24:06.072Z,85.66
2017-07-02T00:24:32.174Z,85.57
2017-07-02T00:24:58.281Z,85.85
2017-07-02T00:25:24.365Z,86.52
2017-07-02T00:25:50.489Z,85.66
2017-07-02T00:26:16.591Z,85.85
2017-07-02T00:26:42.682Z,85.75
2017-07-02T00:27:08.802Z,85.47
2017-07-02T00:27:34.921Z,86.14
2017-07-02T00:28:01.050Z,85.66
2017-07-02T00:28:27.182Z,85.85
2017-07-02T00:28:53.267Z,85.57
2017-07-02T00:29:19.367Z,85.47
2017-07-02T00:29:45.498Z,85.47
2017-07-02T00:30:11.588Z,85.37
2017-07-02T00:30:37.733Z,85.47
2017-07-02T00:31:03.841Z,85.57
2017-07-02T00:31:29.933Z,85.47
2017-07-02T00:31:56.050Z,84.99
2017-07-02T00:32:22.157Z,85.08
2017-07-02T00:32:48.291Z,84.99
2017-07-02T00:33:14.410Z,84.99
2017-07-02T00:33:40.500Z,84.89
2017-07-02T00:34:06.619Z,84.89
2017-07-02T00:34:32.751Z,84.89
2017-07-02T00:34:58.845Z,84.89
2017-07-02T00:35:24.936Z,84.99
2017-07-02T00:35:51.046Z,84.99
2017-07-02T00:36:17.140Z,85.37
2017-07-02T00:36:43.230Z,84.8
2017-07-02T00:37:09.365Z,84.7
2017-07-02T00:37:35.466Z,84.99
2017-07-02T00:38:01.582Z,84.89
2017-07-02T00:38:27.707Z,84.6
2017-07-02T00:38:53.797Z,85.47
2017-07-02T00:39:19.931Z,85.57
2017-07-02T00:39:46.057Z,84.89
2017-07-02T00:40:12.197Z,84.8
2017-07-02T00:40:38.304Z,85.37
2017-07-02T00:41:04.403Z,85.47
2017-07-02T00:41:30.495Z,85.37
2017-07-02T00:41:56.599Z,85.37
2017-07-02T00:42:22.731Z,85.37
2017-07-02T00:42:48.865Z,84.99
2017-07-02T00:43:14.967Z,84.8
2017-07-02T00:43:41.070Z,84.6
2017-07-02T00:44:07.161Z,84.89
2017-07-02T00:44:33.261Z,84.89
2017-07-02T00:44:59.350Z,84.99
2017-07-02T00:45:25.478Z,84.99
2017-07-02T00:45:51.613Z,85.37
2017-07-02T00:46:17.698Z,84.7
2017-07-02T00:46:43.798Z,85.08
2017-07-02T00:47:09.904Z,84.89
2017-07-02T00:47:35.994Z,84.8
2017-07-02T00:48:02.141Z,85.28
2017-07-02T00:48:28.247Z,84.51
2017-07-02T00:48:54.338Z,84.89
2017-07-02T00:49:20.426Z,85.37
2017-07-02T00:49:46.528Z,85.37
2017-07-02T00:50:12.653Z,84.99
2017-07-02T00:50:38.757Z,85.37
2017-07-02T00:51:04.847Z,85.08
2017-07-02T00:51:30.943Z,85.08
2017-07-02T00:51:57.048Z,85.18
2017-07-02T00:52:23.167Z,84.99
2017-07-02T00:52:49.306Z,85.66
2017-07-02T00:53:15.442Z,84.89
2017-07-02T00:53:41.538Z,85.66
2017-07-02T00:54:07.655Z,85.37
2017-07-02T00:54:33.790Z,85.75
2017-07-02T00:54:59.886Z,85.28
2017-07-02T00:55:25.976Z,85.08
2017-07-02T00:55:52.082Z,85.66
2017-07-02T00:56:18.213Z,85.28
2017-07-02T00:56:44.300Z,85.47
2017-07-02T00:57:10.424Z,85.47
2017-07-02T00:57:36.528Z,85.37
2017-07-02T00:58:02.618Z,85.57
2017-07-02T00:58:28.715Z,85.37
2017-07-02T00:58:54.820Z,85.57
2017-07-02T00:59:20.912Z,84.99
2017-07-02T00:59:47.002Z,85.28
2017-07-02T01:00:13.112Z,85.28
2017-07-02T01:00:39.207Z,85.18
2017-07-02T01:01:05.337Z,85.66
2017-07-02T01:01:31.426Z,85.08
2017-07-02T01:01:57.572Z,85.28
2017-07-02T01:02:23.732Z,85.28
2017-07-02T01:02:49.854Z,85.57
2017-07-02T01:03:15.971Z,85.18
2017-07-02T01:03:42.078Z,85.66
2017-07-02T01:04:08.226Z,85.71
2017-07-02T01:04:34.368Z,85.52
2017-07-02T01:05:00.530Z,85.52
2017-07-02T01:05:26.627Z,85.57
2017-07-02T01:05:52.718Z,85.71
2017-07-02T01:06:18.847Z,86.29
2017-07-02T01:06:44.937Z,85.91
2017-07-02T01:07:11.099Z,86.48
2017-07-02T01:07:37.196Z,86.48
2017-07-02T01:08:03.309Z,86
2017-07-02T01:08:29.442Z,86.29
2017-07-02T01:08:55.569Z,86.29
2017-07-02T01:09:21.660Z,86.29
2017-07-02T01:09:47.809Z,86.1
2017-07-02T01:10:13.942Z,86.19
2017-07-02T01:10:40.028Z,86
2017-07-02T01:11:06.128Z,86.1
2017-07-02T01:11:32.262Z,86.29
2017-07-02T01:11:58.347Z,86
2017-07-02T01:12:24.476Z,86.48
2017-07-02T01:12:50.565Z,86.48
2017-07-02T01:13:16.665Z,86.48
2017-07-02T01:13:42.800Z,86.1
2017-07-02T01:14:08.889Z,85.91
2017-07-02T01:14:35.012Z,86.48
2017-07-02T01:15:01.146Z,86.48
2017-07-02T01:15:27.285Z,86.58
2017-07-02T01:15:53.407Z,86.48
2017-07-02T01:16:19.568Z,86.68
2017-07-02T01:16:45.690Z,86.48
2017-07-02T01:17:11.807Z,86.38
2017-07-02T01:17:37.911Z,85.91
2017-07-02T01:18:04.037Z,86.58
2017-07-02T01:18:30.169Z,86.29
2017-07-02T01:18:56.281Z,86.58
2017-07-02T01:19:22.403Z,86.48
2017-07-02T01:19:48.537Z,86.48
2017-07-02T01:20:14.658Z,86.48
2017-07-02T01:20:40.774Z,86.38
2017-07-02T01:21:06.933Z,86.58
2017-07-02T01:21:33.052Z,86.48
2017-07-02T01:21:59.142Z,86.29
2017-07-02T01:22:25.302Z,86.58
2017-07-02T01:22:51.401Z,86.29
2017-07-02T01:23:17.498Z,86.87
2017-07-02T01:23:43.618Z,86.77
2017-07-02T01:24:09.707Z,86.29
2017-07-02T01:24:35.900Z,86.38
2017-07-02T01:25:01.995Z,86.29
2017-07-02T01:25:28.085Z,86.29
2017-07-02T01:25:54.191Z,86.38
2017-07-02T01:26:20.291Z,86.38
2017-07-02T01:26:46.380Z,86.29
2017-07-02T01:27:12.509Z,86.48
2017-07-02T01:27:38.646Z,86.87
2017-07-02T01:28:04.757Z,86.38
2017-07-02T01:28:30.909Z,86.68
2017-07-02T01:28:57.052Z,86.77
2017-07-02T01:29:23.158Z,86.77
2017-07-02T01:29:49.312Z,86.87
2017-07-02T01:30:15.426Z,86.87
2017-07-02T01:30:41.529Z,86.87
2017-07-02T01:31:07.637Z,86.29
2017-07-02T01:31:33.748Z,86.38
2017-07-02T01:31:59.845Z,86.19
2017-07-02T01:32:25.951Z,86.29
2017-07-02T01:32:52.067Z,86.19
2017-07-02T01:33:18.212Z,86.29
2017-07-02T01:33:44.345Z,86.38
2017-07-02T01:34:10.492Z,86.29
2017-07-02T01:34:36.622Z,86.38
2017-07-02T01:35:02.732Z,86.48
2017-07-02T01:35:28.830Z,86.29
2017-07-02T01:35:54.963Z,86.38
2017-07-02T01:36:21.054Z,86.29
2017-07-02T01:36:47.199Z,86.77
2017-07-02T01:37:13.334Z,86.48
2017-07-02T01:37:39.454Z,86.68
2017-07-02T01:38:05.545Z,86.38
2017-07-02T01:38:31.735Z,86.68
2017-07-02T01:38:57.856Z,86.29
2017-07-02T01:39:23.968Z,86.38
2017-07-02T01:39:50.073Z,86.48
2017-07-02T01:40:16.176Z,86.58
2017-07-02T01:40:42.266Z,86.48
2017-07-02T01:41:08.392Z,86.48
2017-07-02T01:41:34.522Z,86.29
2017-07-02T01:42:00.607Z,86.48
2017-07-02T01:42:26.705Z,86.58
2017-07-02T01:42:52.813Z,86.48
2017-07-02T01:43:18.901Z,86.58
2017-07-02T01:43:45.022Z,86.29
2017-07-02T01:44:11.127Z,86.48
2017-07-02T01:44:37.219Z,86.29
2017-07-02T01:45:03.334Z,86.1
2017-07-02T01:45:29.436Z,86.1
2017-07-02T01:45:55.563Z,86.19
2017-07-02T01:46:21.668Z,86.38
2017-07-02T01:46:47.783Z,86.58
2017-07-02T01:47:13.880Z,86.58
2017-07-02T01:47:39.986Z,86.87
2017-07-02T01:48:06.104Z,86.68
2017-07-02T01:48:32.194Z,86.96
2017-07-02T01:48:58.330Z,86.58
2017-07-02T01:49:24.454Z,86.87
2017-07-02T01:49:50.542Z,86.96
2017-07-02T01:50:16.711Z,86.68
2017-07-02T01:50:42.776Z,87.15
2017-07-02T01:51:08.876Z,87.05
2017-07-02T01:51:34.968Z,87.15
2017-07-02T01:52:01.059Z,87.05
2017-07-02T01:52:27.166Z,87.11
2017-07-02T01:52:53.262Z,87.11
2017-07-02T01:53:19.352Z,87.21
2017-07-02T01:53:45.488Z,87.49
2017-07-02T01:54:11.616Z,87.44
2017-07-02T01:54:37.705Z,87.44
2017-07-02T01:55:03.842Z,86.96
2017-07-02T01:55:29.967Z,87.35
2017-07-02T01:55:56.055Z,87.44
2017-07-02T01:56:22.155Z,87.35
2017-07-02T01:56:48.271Z,87.4
2017-07-02T01:57:14.431Z,87.35
2017-07-02T01:57:40.555Z,87.49
2017-07-02T01:58:06.670Z,87.21
2017-07-02T01:58:32.772Z,87.21
2017-07-02T01:58:58.878Z,87.15
2017-07-02T01:59:24.992Z,87.21
2017-07-02T01:59:51.146Z,87.11
2017-07-02T02:00:17.249Z,86.82
2017-07-02T02:00:43.362Z,87.01
2017-07-02T02:01:09.484Z,87.49
2017-07-02T02:01:35.589Z,87.3
2017-07-02T02:02:01.682Z,87.3
2017-07-02T02:02:27.786Z,87.3
2017-07-02T02:02:53.899Z,87.68
2017-07-02T02:03:20.024Z,87.88
2017-07-02T02:03:46.187Z,87.78
2017-07-02T02:04:12.314Z,88.26
2017-07-02T02:04:38.439Z,87.68
2017-07-02T02:05:04.554Z,88.07
2017-07-02T02:05:30.680Z,87.98
2017-07-02T02:05:56.786Z,88.07
2017-07-02T02:06:22.871Z,88.07
2017-07-02T02:06:48.998Z,87.68
2017-07-02T02:07:15.102Z,87.49
2017-07-02T02:07:41.193Z,87.78
2017-07-02T02:08:07.293Z,87.88
2017-07-02T02:08:33.409Z,87.78
2017-07-02T02:08:59.512Z,87.78
2017-07-02T02:09:25.619Z,87.68
2017-07-02T02:09:51.730Z,87.68
2017-07-02T02:10:17.829Z,87.49
2017-07-02T02:10:43.934Z,87.49
2017-07-02T02:11:10.025Z,87.78
2017-07-02T02:11:36.123Z,87.98
2017-07-02T02:12:02.226Z,87.59
2017-07-02T02:12:28.321Z,87.78
2017-07-02T02:12:54.434Z,87.68
2017-07-02T02:13:20.537Z,88.07
2017-07-02T02:13:46.637Z,87.59
2017-07-02T02:14:12.743Z,87.88
2017-07-02T02:14:38.881Z,87.88
2017-07-02T02:15:04.980Z,87.49
2017-07-02T02:15:31.086Z,87.68
2017-07-02T02:15:57.179Z,87.98
2017-07-02T02:16:23.266Z,87.88
2017-07-02T02:16:49.372Z,87.88
2017-07-02T02:17:15.469Z,88.17
2017-07-02T02:17:41.558Z,87.88
2017-07-02T02:18:07.691Z,87.78
2017-07-02T02:18:33.790Z,88.45
2017-07-02T02:18:59.890Z,87.78
2017-07-02T02:19:26.009Z,88.35
2017-07-02T02:19:52.124Z,88.35
2017-07-02T02:20:18.340Z,88.45
2017-07-02T02:20:44.436Z,88.55
2017-07-02T02:21:10.526Z,87.78
2017-07-02T02:21:36.632Z,87.88
2017-07-02T02:22:02.787Z,87.88
2017-07-02T02:22:28.901Z,87.88
2017-07-02T02:22:55.027Z,88.35
2017-07-02T02:23:21.133Z,88.55
2017-07-02T02:23:47.245Z,87.88
2017-07-02T02:24:13.343Z,88.07
2017-07-02T02:24:39.478Z,87.88
2017-07-02T02:25:05.593Z,87.68
2017-07-02T02:25:31.713Z,87.68
2017-07-02T02:25:57.857Z,87.88
2017-07-02T02:26:23.939Z,88.55
2017-07-02T02:26:50.030Z,88.17
2017-07-02T02:27:16.166Z,88.26
2017-07-02T02:27:42.289Z,88.17
2017-07-02T02:28:08.378Z,88.35
2017-07-02T02:28:34.507Z,88.26
2017-07-02T02:29:00.661Z,88.45
2017-07-02T02:29:26.751Z,88.17
2017-07-02T02:29:52.928Z,88.65
2017-07-02T02:30:19.019Z,88.26
2017-07-02T02:30:45.183Z,89.12
2017-07-02T02:31:11.307Z,89.03
2017-07-02T02:31:37.398Z,89.12
2017-07-02T02:32:03.531Z,89.03
2017-07-02T02:32:29.631Z,88.93
2017-07-02T02:32:55.721Z,89.22
2017-07-02T02:33:21.829Z,89.12
2017-07-02T02:33:47.933Z,88.35
2017-07-02T02:34:14.044Z,88.45
2017-07-02T02:34:40.145Z,88.55
2017-07-02T02:35:06.277Z,88.35
2017-07-02T02:35:32.365Z,88.45
2017-07-02T02:35:58.470Z,88.45
2017-07-02T02:36:24.559Z,88.07
2017-07-02T02:36:50.662Z,88.35
2017-07-02T02:37:16.853Z,88.35
2017-07-02T02:37:42.940Z,88.26
2017-07-02T02:38:09.042Z,88.26
2017-07-02T02:38:35.199Z,88.45
2017-07-02T02:39:01.317Z,88.35
2017-07-02T02:39:27.413Z,88.65
2017-07-02T02:39:53.516Z,88.55
2017-07-02T02:40:19.661Z,88.07
2017-07-02T02:40:45.751Z,88.45
2017-07-02T02:41:11.877Z,88.35
2017-07-02T02:41:37.976Z,88.84
2017-07-02T02:42:04.084Z,88.35
2017-07-02T02:42:30.224Z,88.26
2017-07-02T02:42:56.321Z,88.26
2017-07-02T02:43:22.452Z,88.65
2017-07-02T02:43:48.570Z,88.17
2017-07-02T02:44:14.662Z,88.55
2017-07-02T02:44:40.790Z,87.88
2017-07-02T02:45:06.920Z,87.78
2017-07-02T02:45:33.027Z,87.88
2017-07-02T02:45:59.134Z,87.88
2017-07-02T02:46:25.261Z,87.88
2017-07-02T02:46:51.350Z,87.78
2017-07-02T02:47:17.454Z,87.88
2017-07-02T02:47:43.589Z,87.59
2017-07-02T02:48:09.690Z,87.88
2017-07-02T02:48:35.773Z,88.17
2017-07-02T02:49:01.879Z,87.88
2017-07-02T02:49:27.967Z,87.68
2017-07-02T02:49:54.088Z,87.98
2017-07-02T02:50:20.194Z,87.59
2017-07-02T02:50:46.288Z,87.49
2017-07-02T02:51:12.404Z,87.59
2017-07-02T02:51:38.512Z,87.98
2017-07-02T02:52:04.633Z,87.88
2017-07-02T02:52:30.736Z,87.88
2017-07-02T02:52:56.897Z,88.55
2017-07-02T02:53:23.040Z,88.35
2017-07-02T02:53:49.174Z,88.55
2017-07-02T02:54:15.320Z,87.68
2017-07-02T02:54:41.409Z,87.68
2017-07-02T02:55:07.543Z,88.07
2017-07-02T02:55:33.639Z,87.68
2017-07-02T02:55:59.726Z,87.59
2017-07-02T02:56:25.858Z,87.68
2017-07-02T02:56:51.985Z,87.98
2017-07-02T02:57:18.075Z,87.88
2017-07-02T02:57:44.228Z,87.88
2017-07-02T02:58:10.316Z,87.88
2017-07-02T02:58:36.479Z,87.98
2017-07-02T02:59:02.605Z,88.26
2017-07-02T02:59:28.745Z,87.49
2017-07-02T02:59:54.879Z,88.07
2017-07-02T03:00:21.006Z,88.55
2017-07-02T03:00:47.097Z,88.65
2017-07-02T03:01:13.255Z,87.88
2017-07-02T03:01:39.360Z,88.07
2017-07-02T03:02:05.469Z,88.35
2017-07-02T03:02:31.570Z,87.49
2017-07-02T03:02:57.677Z,87.4
2017-07-02T03:03:23.790Z,88.26
2017-07-02T03:03:49.893Z,87.88
2017-07-02T03:04:15.979Z,88.07
2017-07-02T03:04:42.110Z,87.98
2017-07-02T03:05:08.243Z,87.74
2017-07-02T03:05:34.330Z,88.35
2017-07-02T03:06:00.507Z,88.45
2017-07-02T03:06:26.612Z,88.22
2017-07-02T03:06:52.727Z,88.26
2017-07-02T03:07:18.821Z,88.35
2017-07-02T03:07:44.928Z,88.17
2017-07-02T03:08:11.019Z,88.41
2017-07-02T03:08:37.109Z,88.12
2017-07-02T03:09:03.220Z,88.31
2017-07-02T03:09:29.367Z,88.31
2017-07-02T03:09:55.456Z,88.31
2017-07-02T03:10:21.590Z,89.08
2017-07-02T03:10:47.719Z,88.7
2017-07-02T03:11:13.807Z,88.98
2017-07-02T03:11:39.909Z,88.79
2017-07-02T03:12:06.013Z,88.7
2017-07-02T03:12:32.125Z,89.08
2017-07-02T03:12:58.273Z,88.98
2017-07-02T03:13:24.435Z,89.08
2017-07-02T03:13:50.523Z,89.18
2017-07-02T03:14:16.621Z,88.89
2017-07-02T03:14:42.769Z,89.18
2017-07-02T03:15:08.896Z,88.41
2017-07-02T03:15:35.001Z,88.98
2017-07-02T03:16:01.086Z,88.79
2017-07-02T03:16:27.185Z,88.93
2017-07-02T03:16:53.290Z,89.18
2017-07-02T03:17:19.379Z,88.6
2017-07-02T03:17:45.478Z,88.51
2017-07-02T03:18:11.609Z,89.08
2017-07-02T03:18:37.727Z,89.03
2017-07-02T03:19:03.817Z,88.79
2017-07-02T03:19:29.924Z,89.18
2017-07-02T03:19:56.020Z,88.98
2017-07-02T03:20:22.147Z,88.98
2017-07-02T03:20:48.261Z,88.98
2017-07-02T03:21:14.358Z,88.22
2017-07-02T03:21:40.465Z,89.18
2017-07-02T03:22:06.609Z,88.79
2017-07-02T03:22:32.699Z,89.18
2017-07-02T03:22:58.830Z,88.98
2017-07-02T03:23:24.927Z,88.98
2017-07-02T03:23:51.016Z,89.08
2017-07-02T03:24:17.146Z,88.79
2017-07-02T03:24:43.241Z,88.51
2017-07-02T03:25:09.355Z,89.08
2017-07-02T03:25:35.483Z,88.98
2017-07-02T03:26:01.600Z,89.27
2017-07-02T03:26:27.708Z,88.98
2017-07-02T03:26:53.805Z,88.79
2017-07-02T03:27:19.895Z,88.7
2017-07-02T03:27:46.001Z,89.08
2017-07-02T03:28:12.131Z,89.18
2017-07-02T03:28:38.270Z,88.98
2017-07-02T03:29:04.393Z,88.79
2017-07-02T03:29:30.528Z,88.79
2017-07-02T03:29:56.641Z,88.89
2017-07-02T03:30:22.763Z,89.08
2017-07-02T03:30:48.868Z,88.22
2017-07-02T03:31:14.956Z,88.51
2017-07-02T03:31:41.057Z,88.31
2017-07-02T03:32:07.145Z,88.41
2017-07-02T03:32:33.247Z,88.6
2017-07-02T03:32:59.355Z,88.22
2017-07-02T03:33:25.543Z,88.31
2017-07-02T03:33:51.641Z,88.51
2017-07-02T03:34:17.747Z,87.84
2017-07-02T03:34:43.837Z,87.93
2017-07-02T03:35:09.959Z,87.64
2017-07-02T03:35:36.065Z,88.51
2017-07-02T03:36:02.159Z,87.84
2017-07-02T03:36:28.247Z,88.6
2017-07-02T03:36:54.352Z,88.12
2017-07-02T03:37:20.499Z,88.31
2017-07-02T03:37:46.631Z,88.22
2017-07-02T03:38:12.748Z,88.6
2017-07-02T03:38:38.845Z,88.02
2017-07-02T03:39:04.952Z,87.93
2017-07-02T03:39:31.073Z,87.45
2017-07-02T03:39:57.188Z,87.93
2017-07-02T03:40:23.299Z,87.49
2017-07-02T03:40:49.394Z,87.35
2017-07-02T03:41:15.486Z,87.84
2017-07-02T03:41:41.616Z,87.55
2017-07-02T03:42:07.716Z,86.88
2017-07-02T03:42:33.814Z,87.07
2017-07-02T03:42:59.984Z,87.07
2017-07-02T03:43:26.124Z,86.97
2017-07-02T03:43:52.259Z,87.16
2017-07-02T03:44:18.353Z,87.07
2017-07-02T03:44:44.442Z,87.26
2017-07-02T03:45:10.546Z,87.49
2017-07-02T03:45:36.646Z,87.55
2017-07-02T03:46:02.733Z,87.35
2017-07-02T03:46:28.836Z,87.49
2017-07-02T03:46:54.941Z,86.97
2017-07-02T03:47:21.057Z,86.68
2017-07-02T03:47:47.156Z,86.88
2017-07-02T03:48:13.274Z,87.07
2017-07-02T03:48:39.402Z,86.88
2017-07-02T03:49:05.502Z,86.58
2017-07-02T03:49:31.592Z,87.07
2017-07-02T03:49:57.721Z,86.68
2017-07-02T03:50:23.881Z,86.88
2017-07-02T03:50:49.968Z,87.07
2017-07-02T03:51:16.067Z,86.58
2017-07-02T03:51:42.196Z,87.16
2017-07-02T03:52:08.286Z,86.88
2017-07-02T03:52:34.385Z,86.97
2017-07-02T03:53:00.518Z,86.78
2017-07-02T03:53:26.610Z,87.11
2017-07-02T03:53:52.728Z,86.97
2017-07-02T03:54:18.862Z,86.58
2017-07-02T03:54:45.011Z,87.07
2017-07-02T03:55:11.175Z,86.68
2017-07-02T03:55:37.307Z,86.78
2017-07-02T03:56:03.408Z,87.26
2017-07-02T03:56:29.498Z,87.07
2017-07-02T03:56:55.599Z,87.3
2017-07-02T03:57:21.703Z,87.11
2017-07-02T03:57:47.840Z,86.3
2017-07-02T03:58:13.966Z,86.72
2017-07-02T03:58:40.101Z,86.58
2017-07-02T03:59:06.187Z,86.25
2017-07-02T03:59:32.290Z,86.72
2017-07-02T03:59:58.387Z,86.54
2017-07-02T04:00:24.536Z,86.72
2017-07-02T04:00:50.668Z,86.72
2017-07-02T04:01:16.832Z,86.82
2017-07-02T04:01:42.931Z,86.44
2017-07-02T04:02:09.037Z,86.82
2017-07-02T04:02:35.126Z,86.54
2017-07-02T04:03:01.247Z,86.25
2017-07-02T04:03:27.351Z,86.34
2017-07-02T04:03:53.471Z,86.44
2017-07-02T04:04:19.559Z,86.54
2017-07-02T04:04:45.716Z,86.34
2017-07-02T04:05:11.813Z,86.25
2017-07-02T04:05:37.961Z,86.15
2017-07-02T04:06:04.028Z,86.44
2017-07-02T04:06:30.173Z,86.54
2017-07-02T04:06:56.274Z,86.15
2017-07-02T04:07:22.393Z,85.96
2017-07-02T04:07:48.481Z,86.25
2017-07-02T04:08:14.589Z,86.34
2017-07-02T04:08:40.713Z,86.34
2017-07-02T04:09:06.802Z,86.05
2017-07-02T04:09:32.933Z,86.44
2017-07-02T04:09:59.033Z,86.54
2017-07-02T04:10:25.132Z,86.34
2017-07-02T04:10:51.222Z,86.25
2017-07-02T04:11:17.313Z,86.54
2017-07-02T04:11:43.421Z,86.44
2017-07-02T04:12:09.546Z,86.25
2017-07-02T04:12:35.635Z,85.86
2017-07-02T04:13:01.770Z,85.96
2017-07-02T04:13:27.871Z,86.25
2017-07-02T04:13:54.011Z,85.96
2017-07-02T04:14:20.116Z,85.96
2017-07-02T04:14:46.222Z,86.05
2017-07-02T04:15:12.311Z,85.48
2017-07-02T04:15:38.410Z,85.67
2017-07-02T04:16:04.503Z,85.48
2017-07-02T04:16:30.609Z,85.48
2017-07-02T04:16:56.710Z,85.77
2017-07-02T04:17:22.820Z,86.05
2017-07-02T04:17:48.951Z,85.86
2017-07-02T04:18:15.054Z,85.77
2017-07-02T04:18:41.143Z,86.15
2017-07-02T04:19:07.243Z,85.86
2017-07-02T04:19:33.351Z,86.25
2017-07-02T04:19:59.461Z,86.05
2017-07-02T04:20:25.579Z,86.15
2017-07-02T04:20:51.689Z,86.05
2017-07-02T04:21:17.781Z,86.25
2017-07-02T04:21:43.887Z,86.15
2017-07-02T04:22:10.000Z,86.63
2017-07-02T04:22:36.099Z,86.63
2017-07-02T04:23:02.229Z,86.49
2017-07-02T04:23:28.317Z,86.34
2017-07-02T04:23:54.413Z,86.63
2017-07-02T04:24:20.547Z,86.44
2017-07-02T04:24:46.646Z,85.86
2017-07-02T04:25:12.780Z,85.96
2017-07-02T04:25:38.888Z,86.05
2017-07-02T04:26:04.982Z,86.25
2017-07-02T04:26:31.096Z,85.96
2017-07-02T04:26:57.229Z,86.63
2017-07-02T04:27:23.319Z,86.63
2017-07-02T04:27:49.468Z,86.44
2017-07-02T04:28:15.549Z,86.25
2017-07-02T04:28:41.711Z,86.34
2017-07-02T04:29:07.820Z,86.63
2017-07-02T04:29:33.918Z,86.34
2017-07-02T04:30:00.010Z,85.77
2017-07-02T04:30:26.144Z,86.44
2017-07-02T04:30:52.269Z,86.25
2017-07-02T04:31:18.382Z,86.05
2017-07-02T04:31:44.508Z,86.05
2017-07-02T04:32:10.641Z,86.3
2017-07-02T04:32:36.759Z,85.96
2017-07-02T04:33:02.912Z,85.96
2017-07-02T04:33:29.025Z,86.34
2017-07-02T04:33:55.161Z,86.44
2017-07-02T04:34:21.316Z,86.4
2017-07-02T04:34:47.431Z,85.86
2017-07-02T04:35:13.555Z,86.25
2017-07-02T04:35:39.661Z,86.25
2017-07-02T04:36:05.747Z,86.01
2017-07-02T04:36:31.844Z,86.3
2017-07-02T04:36:57.952Z,86.4
2017-07-02T04:37:24.040Z,86.21
2017-07-02T04:37:50.138Z,86.58
2017-07-02T04:38:16.243Z,86.49
2017-07-02T04:38:42.367Z,86.58
2017-07-02T04:39:08.479Z,86.21
2017-07-02T04:39:34.589Z,86.78
2017-07-02T04:40:00.687Z,86.49
2017-07-02T04:40:26.778Z,86.58
2017-07-02T04:40:52.883Z,86.21
2017-07-02T04:41:18.982Z,86.49
2017-07-02T04:41:45.085Z,86.4
2017-07-02T04:42:11.172Z,86.68
2017-07-02T04:42:37.279Z,86.3
2017-07-02T04:43:03.367Z,86.78
2017-07-02T04:43:29.466Z,86.68
2017-07-02T04:43:55.557Z,86.58
2017-07-02T04:44:21.662Z,86.68
2017-07-02T04:44:47.762Z,86.21
2017-07-02T04:45:13.877Z,86.78
2017-07-02T04:45:39.980Z,86.3
2017-07-02T04:46:06.086Z,86.3
2017-07-02T04:46:32.171Z,86.44
2017-07-02T04:46:58.292Z,86.44
2017-07-02T04:47:24.397Z,85.77
2017-07-02T04:47:50.515Z,85.96
2017-07-02T04:48:16.611Z,85.96
2017-07-02T04:48:42.718Z,86.05
2017-07-02T04:49:08.835Z,86.05
2017-07-02T04:49:34.941Z,86.15
2017-07-02T04:50:01.054Z,85.92
2017-07-02T04:50:27.177Z,86.05
2017-07-02T04:50:53.309Z,86.05
2017-07-02T04:51:19.397Z,85.86
2017-07-02T04:51:45.493Z,85.77
2017-07-02T04:52:11.652Z,85.77
2017-07-02T04:52:37.746Z,86.05
2017-07-02T04:53:03.861Z,85.96
2017-07-02T04:53:29.968Z,85.86
2017-07-02T04:53:56.067Z,86.05
2017-07-02T04:54:22.180Z,86.15
2017-07-02T04:54:48.286Z,86.15
2017-07-02T04:55:14.379Z,85.58
2017-07-02T04:55:40.512Z,85.38
2017-07-02T04:56:06.607Z,85.48
2017-07-02T04:56:32.723Z,85.28
2017-07-02T04:56:58.857Z,85.67
2017-07-02T04:57:24.981Z,85.67
2017-07-02T04:57:51.071Z,85.38
2017-07-02T04:58:17.202Z,85.77
2017-07-02T04:58:43.359Z,85.58
2017-07-02T04:59:09.475Z,85.67
2017-07-02T04:59:35.601Z,85.38
2017-07-02T05:00:01.734Z,84.71
2017-07-02T05:00:27.827Z,84.91
2017-07-02T05:00:53.949Z,84.81
2017-07-02T05:01:20.039Z,84.52
2017-07-02T05:01:46.200Z,84.61
2017-07-02T05:02:12.354Z,84.81
2017-07-02T05:02:38.466Z,84.61
2017-07-02T05:03:04.569Z,84.42
2017-07-02T05:03:30.704Z,84.08
2017-07-02T05:03:56.791Z,83.89
2017-07-02T05:04:22.965Z,83.98
2017-07-02T05:04:49.017Z,83.56
2017-07-02T05:05:15.105Z,83.7
2017-07-02T05:05:41.199Z,83.65
2017-07-02T05:06:07.320Z,83.47
2017-07-02T05:06:33.477Z,83.56
2017-07-02T05:06:59.582Z,83.56
2017-07-02T05:07:25.669Z,84.04
2017-07-02T05:07:51.769Z,83.56
2017-07-02T05:08:17.903Z,84.04
2017-07-02T05:08:44.021Z,83.85
2017-07-02T05:09:10.140Z,83.56
2017-07-02T05:09:36.273Z,83.47
2017-07-02T05:10:02.367Z,83.47
2017-07-02T05:10:28.458Z,82.89
2017-07-02T05:10:54.565Z,83.27
2017-07-02T05:11:20.689Z,83.27
2017-07-02T05:11:46.791Z,83.65
2017-07-02T05:12:12.882Z,83.56
2017-07-02T05:12:39.004Z,83.27
2017-07-02T05:13:05.112Z,83.08
2017-07-02T05:13:31.288Z,83.47
2017-07-02T05:13:57.429Z,83.37
2017-07-02T05:14:23.537Z,83.12
2017-07-02T05:14:49.682Z,83.08
2017-07-02T05:15:15.776Z,83.18
2017-07-02T05:15:41.909Z,83.22
2017-07-02T05:16:08.025Z,82.74
2017-07-02T05:16:34.123Z,83.41
2017-07-02T05:17:00.251Z,83.22
2017-07-02T05:17:26.341Z,82.84
2017-07-02T05:17:52.448Z,82.93
2017-07-02T05:18:18.545Z,83.03
2017-07-02T05:18:44.685Z,82.35
2017-07-02T05:19:10.841Z,83.03
2017-07-02T05:19:36.966Z,83.03
2017-07-02T05:20:03.059Z,82.74
2017-07-02T05:20:29.184Z,82.84
2017-07-02T05:20:55.291Z,83.22
2017-07-02T05:21:21.401Z,82.64
2017-07-02T05:21:47.502Z,83.12
2017-07-02T05:22:13.609Z,83.27
2017-07-02T05:22:39.696Z,82.6
2017-07-02T05:23:05.793Z,82.89
2017-07-02T05:23:31.925Z,82.54
2017-07-02T05:23:58.073Z,82.31
2017-07-02T05:24:24.190Z,82.6
2017-07-02T05:24:50.321Z,82.6
2017-07-02T05:25:16.418Z,83.18
2017-07-02T05:25:42.508Z,83.18
2017-07-02T05:26:08.613Z,82.98
2017-07-02T05:26:34.714Z,83.12
2017-07-02T05:27:00.802Z,83.08
2017-07-02T05:27:26.904Z,83.51
2017-07-02T05:27:53.066Z,82.35
2017-07-02T05:28:19.208Z,83.31
2017-07-02T05:28:45.335Z,83.12
2017-07-02T05:29:11.505Z,82.35
2017-07-02T05:29:37.630Z,82.74
2017-07-02T05:30:03.729Z,82.64
2017-07-02T05:30:29.841Z,82.16
2017-07-02T05:30:55.972Z,82.26
2017-07-02T05:31:22.079Z,82.74
2017-07-02T05:31:48.166Z,82.45
2017-07-02T05:32:14.264Z,82.64
2017-07-02T05:32:40.397Z,82.26
2017-07-02T05:33:06.515Z,82.45
2017-07-02T05:33:32.613Z,81.97
2017-07-02T05:33:58.710Z,81.68
2017-07-02T05:34:24.812Z,81.87
2017-07-02T05:34:50.919Z,82.16
2017-07-02T05:35:17.006Z,82.07
2017-07-02T05:35:43.104Z,82.07
2017-07-02T05:36:09.209Z,81.97
2017-07-02T05:36:35.298Z,81.68
2017-07-02T05:37:01.394Z,82.21